Time;durP1;ratioP1;P1;durP2;ratioP2;P2;SDS_P1;SDS_P2;PMS_P1;PMS_P2;Temp;Humidity;BMP_temperature;BMP_pressure;BME280_temperature;BME280_humidity;BME280_pressure;Samples;Min_cycle;Max_cycle;Signal;HPM_P1;HPM_P2
2022/08/29 00:02:20;;;;;;;5.88;2.33;;;;;;;16.83;52.13;101200.13;5056377;28;20016;-24
2022/08/29 00:04:45;;;;;;;4.72;2.42;;;;;;;16.77;52.22;101199.38;5066371;28;20035;-24
2022/08/29 00:07:11;;;;;;;3.85;2.35;;;;;;;16.75;52.25;101201.22;5061035;28;20040;-24
2022/08/29 00:09:36;;;;;;;4.25;2.67;;;;;;;16.71;52.50;101196.91;5055706;28;20029;-25
2022/08/29 00:12:02;;;;;;;4.45;2.28;;;;;;;16.63;52.55;101188.22;5067082;28;20032;-24
2022/08/29 00:14:27;;;;;;;2.67;2.45;;;;;;;16.63;52.82;101198.88;5065935;28;20021;-24
2022/08/29 00:16:53;;;;;;;6.15;2.22;;;;;;;16.61;52.89;101193.59;5066432;28;20043;-24
2022/08/29 00:19:19;;;;;;;3.80;2.83;;;;;;;16.55;52.83;101191.94;5063828;28;20119;-23
2022/08/29 00:21:44;;;;;;;4.10;2.17;;;;;;;16.51;53.16;101197.41;5060674;28;20077;-24
2022/08/29 00:24:09;;;;;;;4.97;2.20;;;;;;;16.45;53.36;101192.25;5059226;28;20044;-24
2022/08/29 00:26:35;;;;;;;5.15;2.75;;;;;;;16.45;53.14;101195.78;5059956;28;20033;-24
2022/08/29 00:29:00;;;;;;;4.10;2.35;;;;;;;16.43;53.28;101197.59;5056468;28;20484;-24
2022/08/29 00:31:26;;;;;;;2.70;2.05;;;;;;;16.38;53.62;101194.19;5065314;28;20030;-24
2022/08/29 00:33:51;;;;;;;5.20;2.45;;;;;;;16.36;53.29;101204.88;5057044;28;20020;-24
2022/08/29 00:36:17;;;;;;;4.50;2.40;;;;;;;16.34;53.54;101208.50;5061128;28;20501;-24
2022/08/29 00:38:42;;;;;;;4.32;2.75;;;;;;;16.29;53.46;101198.84;5063639;28;20115;-24
2022/08/29 00:41:08;;;;;;;3.50;2.22;;;;;;;16.24;53.57;101205.19;5063584;28;20454;-24
2022/08/29 00:43:35;;;;;;;6.68;3.22;;;;;;;16.20;53.59;101207.03;5061084;28;20047;-24
2022/08/29 00:46:12;;;;;;;2.80;2.30;;;;;;;16.17;53.63;101209.75;5061748;28;20040;-24
2022/08/29 00:48:38;;;;;;;3.85;2.40;;;;;;;16.12;53.57;101217.88;5062409;28;20037;-24
2022/08/29 00:51:07;;;;;;;3.75;2.40;;;;;;;16.11;53.29;101210.78;5066677;28;20025;-24
2022/08/29 00:53:36;;;;;;;2.78;1.90;;;;;;;16.05;53.69;101202.06;5060302;28;20020;-24
2022/08/29 00:56:03;;;;;;;4.72;2.13;;;;;;;15.99;53.70;101216.41;5058470;28;20499;-24
2022/08/29 00:58:42;;;;;;;3.88;2.55;;;;;;;16.00;53.69;101215.47;5059718;28;20025;-24
2022/08/29 01:01:09;;;;;;;3.63;2.72;;;;;;;15.94;53.45;101216.47;5056238;28;20490;-24
2022/08/29 01:03:35;;;;;;;4.63;2.65;;;;;;;15.89;53.32;101218.38;5055919;28;20035;-24
2022/08/29 01:06:02;;;;;;;5.80;3.30;;;;;;;15.84;53.61;101218.47;5057580;28;20052;-24
2022/08/29 01:08:28;;;;;;;4.03;2.38;;;;;;;15.82;53.51;101222.06;5077265;28;20392;-24
2022/08/29 01:13:40;;;;;;;5.13;2.60;;;;;;;15.77;53.53;101225.72;5060288;28;20040;-24
2022/08/29 01:16:07;;;;;;;4.85;2.75;;;;;;;15.68;53.94;101220.59;5061087;28;20024;-24
2022/08/29 01:18:34;;;;;;;6.13;2.72;;;;;;;15.67;53.83;101224.16;5062118;28;20025;-25
2022/08/29 01:21:21;;;;;;;3.10;2.65;;;;;;;15.63;53.84;101222.47;5059322;28;20052;-24
2022/08/29 01:23:53;;;;;;;5.07;2.75;;;;;;;15.62;53.98;101220.72;5059624;28;20107;-24
2022/08/29 01:26:20;;;;;;;3.05;2.75;;;;;;;15.58;53.80;101219.03;5055698;28;20045;-24
2022/08/29 01:28:49;;;;;;;3.90;2.60;;;;;;;15.55;53.92;101224.41;5057305;28;20127;-24
2022/08/29 01:31:19;;;;;;;4.18;2.67;;;;;;;15.49;53.99;101228.97;5064676;28;20521;-24
2022/08/29 01:33:46;;;;;;;7.20;2.78;;;;;;;15.48;53.75;101231.66;5067217;28;20050;-24
2022/08/29 01:36:13;;;;;;;4.82;2.53;;;;;;;15.49;53.85;101231.63;5064622;28;20070;-24
2022/08/29 01:38:40;;;;;;;5.07;2.65;;;;;;;15.41;53.76;101230.03;5066247;28;20113;-24
2022/08/29 01:41:06;;;;;;;3.00;2.63;;;;;;;15.36;53.75;101230.13;5068285;28;20031;-24
2022/08/29 01:43:38;;;;;;;4.82;2.28;;;;;;;15.32;53.51;101223.13;5064443;28;20025;-24
2022/08/29 01:46:03;;;;;;;4.60;2.53;;;;;;;15.30;53.37;101232.91;5063070;28;20028;-24
2022/08/29 01:48:29;;;;;;;4.13;2.85;;;;;;;15.21;53.59;101226.84;5068867;28;20024;-23
2022/08/29 01:50:55;;;;;;;5.15;3.15;;;;;;;15.15;53.90;101232.31;5067289;28;20038;-24
2022/08/29 01:53:21;;;;;;;6.85;3.20;;;;;;;15.11;53.98;101235.94;5064578;28;20042;-24
2022/08/29 01:55:46;;;;;;;5.38;3.08;;;;;;;15.05;53.82;101239.56;5065412;28;20460;-24
2022/08/29 01:58:11;;;;;;;4.65;2.97;;;;;;;15.03;54.06;101238.72;5063964;28;20021;-25
2022/08/29 02:00:37;;;;;;;3.55;2.67;;;;;;;15.06;53.99;101243.09;5063401;28;20032;-24
2022/08/29 02:03:02;;;;;;;4.70;2.58;;;;;;;15.01;53.99;101236.09;5065991;28;20031;-25
2022/08/29 02:05:29;;;;;;;6.82;2.72;;;;;;;14.97;54.43;101239.72;5065786;28;20488;-24
2022/08/29 02:07:55;;;;;;;4.97;2.72;;;;;;;14.94;54.35;101239.75;5070403;28;20065;-24
2022/08/29 02:10:21;;;;;;;5.32;2.97;;;;;;;14.90;54.49;101242.53;5067029;28;20021;-24
2022/08/29 02:12:48;;;;;;;5.05;2.42;;;;;;;14.84;54.75;101240.84;5067052;28;20430;-24
2022/08/29 02:15:15;;;;;;;5.32;2.97;;;;;;;14.86;54.63;101244.34;5064250;28;20387;-25
2022/08/29 02:17:40;;;;;;;5.70;2.80;;;;;;;14.82;54.73;101240.88;5060118;28;20079;-24
2022/08/29 02:20:07;;;;;;;3.22;2.67;;;;;;;14.82;54.93;101245.28;5063159;28;20400;-23
2022/08/29 02:22:34;;;;;;;3.42;2.42;;;;;;;14.77;55.09;101236.50;5060438;28;20033;-24
2022/08/29 02:25:00;;;;;;;5.82;2.70;;;;;;;14.71;55.04;101248.97;5058156;28;20075;-24
2022/08/29 02:27:25;;;;;;;4.28;2.60;;;;;;;14.69;55.14;101245.50;5065166;28;20029;-24
2022/08/29 02:29:51;;;;;;;5.63;3.22;;;;;;;14.68;54.83;101243.75;5060575;28;20032;-24
2022/08/29 02:32:17;;;;;;;3.92;2.83;;;;;;;14.66;55.20;101240.22;5063223;28;20100;-24
2022/08/29 02:34:44;;;;;;;3.03;2.60;;;;;;;14.53;55.75;101238.66;5078179;28;20122;-24
2022/08/29 02:37:09;;;;;;;4.13;2.65;;;;;;;14.58;55.36;101242.13;5066734;28;20027;-24
2022/08/29 02:39:34;;;;;;;5.78;2.45;;;;;;;14.50;55.76;101242.25;5064672;28;20025;-24
2022/08/29 02:42:00;;;;;;;6.05;2.85;;;;;;;14.53;55.45;101246.63;5062787;28;20024;-24
2022/08/29 02:44:25;;;;;;;5.55;2.95;;;;;;;14.44;55.75;101242.38;5064443;28;20033;-24
2022/08/29 02:46:51;;;;;;;3.88;2.90;;;;;;;14.50;55.47;101240.47;5061265;28;20333;-24
2022/08/29 02:49:16;;;;;;;4.65;3.40;;;;;;;14.44;55.67;101243.22;5061094;28;20177;-24
2022/08/29 02:51:41;;;;;;;5.55;2.58;;;;;;;14.37;55.80;101237.16;5064603;28;20127;-24
2022/08/29 02:54:07;;;;;;;5.10;3.10;;;;;;;14.41;55.58;101239.75;5064594;28;20104;-24
2022/08/29 02:56:32;;;;;;;4.38;2.70;;;;;;;14.38;55.77;101246.00;5063799;28;20036;-24
2022/08/29 02:58:58;;;;;;;5.03;3.13;;;;;;;14.34;55.76;101239.00;5059055;28;20031;-24
2022/08/29 03:01:25;;;;;;;5.00;2.92;;;;;;;14.33;55.90;101232.78;5063423;28;20028;-24
2022/08/29 03:03:51;;;;;;;5.50;2.58;;;;;;;14.26;55.98;101235.56;5067165;28;20013;-24
2022/08/29 03:06:18;;;;;;;7.13;3.38;;;;;;;14.24;56.01;101240.91;5067480;28;20098;-24
2022/08/29 03:08:43;;;;;;;5.05;3.28;;;;;;;14.21;56.21;101238.31;5062736;28;20032;-24
2022/08/29 03:11:09;;;;;;;5.25;3.08;;;;;;;14.18;56.05;101246.31;5075547;28;20040;-24
2022/08/29 03:13:35;;;;;;;5.45;2.95;;;;;;;14.19;55.98;101240.09;5061017;28;20514;-24
2022/08/29 03:16:01;;;;;;;4.97;2.55;;;;;;;14.19;56.25;101248.94;5063043;28;20476;-24
2022/08/29 03:18:28;;;;;;;5.40;3.10;;;;;;;14.11;55.97;101243.72;5064542;28;20512;-24
2022/08/29 03:20:53;;;;;;;6.47;3.95;;;;;;;14.10;55.90;101241.09;5063550;28;20059;-24
2022/08/29 03:23:19;;;;;;;3.33;2.75;;;;;;;14.05;56.17;101248.25;5061258;28;20036;-24
2022/08/29 03:25:44;;;;;;;5.60;3.28;;;;;;;14.03;56.22;101250.03;5063188;28;20020;-24
2022/08/29 03:28:10;;;;;;;5.10;3.67;;;;;;;14.04;56.00;101246.50;5061622;28;20480;-24
2022/08/29 03:30:36;;;;;;;5.25;3.47;;;;;;;13.98;56.17;101252.78;5068286;28;20182;-24
2022/08/29 03:33:03;;;;;;;4.63;3.05;;;;;;;13.94;56.56;101251.94;5062937;28;20070;-24
2022/08/29 03:35:28;;;;;;;5.47;3.40;;;;;;;13.94;56.25;101251.06;5062128;28;20024;-24
2022/08/29 03:37:54;;;;;;;5.93;3.38;;;;;;;13.91;56.23;101246.66;5061486;28;20031;-24
2022/08/29 03:40:21;;;;;;;6.22;3.25;;;;;;;13.93;56.04;101249.28;5061145;28;20094;-24
2022/08/29 03:42:46;;;;;;;5.47;3.42;;;;;;;13.86;56.38;101245.84;5058678;28;20043;-24
2022/08/29 03:45:14;;;;;;;4.60;2.80;;;;;;;13.81;56.51;101242.41;5059162;28;20455;-24
2022/08/29 03:47:40;;;;;;;7.40;3.90;;;;;;;13.75;56.59;101239.81;5060321;28;20021;-24
2022/08/29 03:50:05;;;;;;;5.82;3.65;;;;;;;13.77;56.49;101238.03;5061295;28;20021;-24
2022/08/29 03:52:31;;;;;;;6.65;3.25;;;;;;;13.72;56.58;101244.28;5058550;28;20432;-24
2022/08/29 03:54:56;;;;;;;4.15;3.05;;;;;;;13.69;56.95;101239.03;5055941;28;20028;-24
2022/08/29 03:57:22;;;;;;;5.30;3.50;;;;;;;13.67;56.85;101251.41;5057908;28;20549;-24
2022/08/29 03:59:47;;;;;;;5.22;3.65;;;;;;;13.67;56.51;101248.75;5056196;28;20473;-24
2022/08/29 04:02:13;;;;;;;8.15;4.47;;;;;;;13.70;56.48;101248.72;5064451;28;20098;-24
2022/08/29 04:07:23;;;;;;;6.90;3.80;;;;;;;13.57;56.89;101248.00;5062219;28;20031;-24
2022/08/29 04:09:48;;;;;;;6.72;4.50;;;;;;;13.59;56.60;101253.28;5061096;28;20024;-24
2022/08/29 04:12:15;;;;;;;6.35;4.18;;;;;;;13.56;56.89;101251.53;5058985;28;20054;-24
2022/08/29 04:14:41;;;;;;;5.90;3.88;;;;;;;13.61;56.70;101254.16;5059648;28;20012;-24
2022/08/29 04:17:09;;;;;;;8.50;4.28;;;;;;;13.54;56.77;101255.13;5060673;28;20103;-24
2022/08/29 04:19:34;;;;;;;7.75;3.88;;;;;;;13.45;56.90;101251.66;5060919;28;20369;-24
2022/08/29 04:22:00;;;;;;;5.82;4.10;;;;;;;13.44;56.92;101255.19;5059000;28;20453;-24
2022/08/29 04:24:25;;;;;;;4.68;3.88;;;;;;;13.37;56.89;101253.50;5058870;28;20056;-24
2022/08/29 04:26:50;;;;;;;6.35;3.88;;;;;;;13.41;56.95;101268.44;5060688;28;20069;-25
2022/08/29 04:29:16;;;;;;;6.38;4.18;;;;;;;13.36;57.11;101267.63;5067462;28;20081;-24
2022/08/29 04:31:42;;;;;;;7.30;4.22;;;;;;;13.36;56.89;101270.28;5061070;28;20080;-24
2022/08/29 04:34:09;;;;;;;9.30;3.92;;;;;;;13.31;57.17;101277.41;5051885;28;20031;-23
2022/08/29 04:36:36;;;;;;;7.68;4.53;;;;;;;13.27;57.54;101276.56;5062815;28;20033;-24
2022/08/29 04:39:03;;;;;;;7.68;4.97;;;;;;;13.27;57.20;101273.06;5059684;28;20028;-24
2022/08/29 04:41:28;;;;;;;7.32;4.65;;;;;;;13.26;57.24;101279.22;5067546;28;20012;-24
2022/08/29 04:43:53;;;;;;;6.30;4.43;;;;;;;13.17;57.45;101274.91;5067405;28;20124;-24
2022/08/29 04:46:19;;;;;;;4.57;4.03;;;;;;;13.24;57.25;101273.09;5065757;28;20316;-24
2022/08/29 04:48:44;;;;;;;7.63;4.47;;;;;;;13.20;57.06;101267.81;5056994;28;20025;-24
2022/08/29 04:51:09;;;;;;;5.57;4.15;;;;;;;13.19;57.55;101271.34;5059483;28;20027;-24
2022/08/29 04:53:35;;;;;;;7.55;5.05;;;;;;;13.21;57.17;101271.34;5058696;28;20029;-24
2022/08/29 04:56:05;;;;;;;8.32;5.07;;;;;;;13.16;57.23;101271.38;5052872;28;20032;-24
2022/08/29 04:58:31;;;;;;;8.82;4.38;;;;;;;13.21;56.86;101261.59;5060179;28;20031;-24
2022/08/29 05:00:56;;;;;;;5.90;4.28;;;;;;;13.27;57.04;101273.06;5060120;28;20395;-24
2022/08/29 05:03:22;;;;;;;5.70;4.88;;;;;;;13.28;56.98;101272.16;5065663;28;20024;-24
2022/08/29 05:06:00;;;;;;;7.75;4.32;;;;;;;13.25;57.05;101272.19;5067521;28;20056;-24
2022/08/29 05:08:26;;;;;;;7.28;5.00;;;;;;;13.13;57.48;101268.75;5065777;28;20403;-24
2022/08/29 05:10:51;;;;;;;8.00;4.75;;;;;;;13.13;57.42;101271.41;5063795;28;20520;-24
2022/08/29 05:13:17;;;;;;;6.70;4.38;;;;;;;13.15;57.36;101271.41;5062709;28;20044;-24
2022/08/29 05:15:43;;;;;;;8.27;4.45;;;;;;;13.16;57.74;101274.03;5058605;28;20029;-24
2022/08/29 05:18:10;;;;;;;8.27;4.82;;;;;;;13.17;57.57;101280.22;5061110;28;20025;-24
2022/08/29 05:20:39;;;;;;;5.93;4.43;;;;;;;13.17;57.29;101274.91;5069140;28;20051;-24
2022/08/29 05:23:04;;;;;;;7.50;4.70;;;;;;;13.21;57.50;101288.09;5068813;28;20029;-24
2022/08/29 05:25:29;;;;;;;5.85;4.45;;;;;;;13.24;57.46;101281.03;5063200;28;20051;-25
2022/08/29 05:27:55;;;;;;;8.48;4.57;;;;;;;13.21;57.93;101281.94;5066259;28;20400;-24
2022/08/29 05:30:20;;;;;;;7.40;4.68;;;;;;;13.22;57.64;101286.34;5068079;28;20109;-24
2022/08/29 05:32:45;;;;;;;4.72;4.15;;;;;;;13.25;57.75;101277.47;5062856;28;20126;-24
2022/08/29 05:35:11;;;;;;;7.35;4.18;;;;;;;13.21;57.92;101285.44;5065383;28;20073;-24
2022/08/29 05:37:36;;;;;;;8.35;3.95;;;;;;;13.28;57.86;101290.69;5066650;28;20159;-24
2022/08/29 05:40:02;;;;;;;5.70;4.20;;;;;;;13.28;58.12;101290.69;5066096;28;20029;-24
2022/08/29 05:42:28;;;;;;;8.43;4.47;;;;;;;13.23;58.87;101285.44;5062348;28;20025;-24
2022/08/29 05:44:53;;;;;;;8.75;4.43;;;;;;;13.28;59.22;101285.41;5062902;28;20435;-24
2022/08/29 05:47:19;;;;;;;8.90;4.78;;;;;;;13.32;59.56;101290.66;5068662;28;20035;-25
2022/08/29 05:49:46;;;;;;;9.75;4.53;;;;;;;13.37;59.62;101293.22;5067092;28;20031;-24
2022/08/29 05:52:13;;;;;;;6.53;3.65;;;;;;;13.41;60.17;101291.44;5065389;28;20032;-24
2022/08/29 05:54:40;;;;;;;8.70;4.97;;;;;;;13.39;60.36;101288.81;5066207;28;20017;-24
2022/08/29 05:57:06;;;;;;;5.65;3.83;;;;;;;13.46;60.61;101293.16;5067306;28;20020;-24
2022/08/29 05:59:31;;;;;;;8.02;4.07;;;;;;;13.56;60.74;101298.34;5064628;28;20066;-24
2022/08/29 06:01:57;;;;;;;8.35;3.85;;;;;;;13.58;60.50;101296.59;5065995;28;20017;-24
2022/08/29 06:04:22;;;;;;;7.15;4.05;;;;;;;13.63;60.56;101293.88;5071765;28;20403;-24
2022/08/29 06:06:49;;;;;;;9.05;4.00;;;;;;;13.63;60.41;101292.09;5063571;28;20058;-24
2022/08/29 06:09:15;;;;;;;5.53;3.72;;;;;;;13.68;60.32;101287.63;5068772;28;20525;-24
2022/08/29 06:11:40;;;;;;;7.47;3.75;;;;;;;13.73;60.71;101295.50;5063312;28;20024;-23
2022/08/29 06:14:05;;;;;;;6.30;3.78;;;;;;;13.78;60.87;101296.34;5065929;28;20399;-24
2022/08/29 06:16:31;;;;;;;7.10;3.70;;;;;;;13.84;60.95;101298.03;5066725;28;20055;-24
2022/08/29 06:18:57;;;;;;;8.68;4.10;;;;;;;13.89;61.13;101296.19;5067306;28;20021;-24
2022/08/29 06:21:23;;;;;;;7.38;3.38;;;;;;;13.93;61.11;101302.31;5064214;28;20392;-24
2022/08/29 06:23:48;;;;;;;10.45;4.13;;;;;;;14.02;61.28;101296.91;5060213;28;20020;-24
2022/08/29 06:26:14;;;;;;;7.47;3.58;;;;;;;14.17;61.13;101301.13;5064510;28;20025;-24
2022/08/29 06:28:44;;;;;;;6.30;3.95;;;;;;;14.18;61.41;101300.25;5068507;28;20017;-24
2022/08/29 06:31:19;;;;;;;6.82;4.00;;;;;;;14.30;61.19;101300.97;5065683;28;20075;-24
2022/08/29 06:33:45;;;;;;;11.13;4.20;;;;;;;14.31;60.83;101303.56;5065624;28;20052;-24
2022/08/29 06:36:11;;;;;;;5.38;3.40;;;;;;;14.47;60.42;101314.84;5059310;28;20049;-24
2022/08/29 06:38:37;;;;;;;5.10;3.55;;;;;;;14.62;59.78;101302.25;5065980;28;20024;-24
2022/08/29 06:41:06;;;;;;;7.68;3.88;;;;;;;14.71;59.74;101309.19;5064283;28;20036;-24
2022/08/29 06:43:32;;;;;;;6.10;3.25;;;;;;;14.79;60.19;101319.69;5059814;28;20017;-24
2022/08/29 06:45:57;;;;;;;5.95;3.67;;;;;;;14.85;59.79;101314.28;5064684;28;20085;-24
2022/08/29 06:48:24;;;;;;;8.85;3.67;;;;;;;14.92;60.13;101317.72;5064508;28;20108;-24
2022/08/29 06:50:49;;;;;;;7.70;3.10;;;;;;;14.99;59.91;101317.59;5065917;28;20115;-24
2022/08/29 06:53:14;;;;;;;6.57;3.20;;;;;;;15.05;60.10;101321.03;5059141;28;20023;-24
2022/08/29 06:55:40;;;;;;;7.28;3.25;;;;;;;15.09;59.80;101320.97;5068690;28;20024;-24
2022/08/29 06:58:05;;;;;;;6.53;3.33;;;;;;;15.16;60.50;101319.06;5058505;28;20392;-24
2022/08/29 07:00:30;;;;;;;7.88;2.97;;;;;;;15.20;59.88;101318.09;5063993;28;20032;-24
2022/08/29 07:02:56;;;;;;;5.13;2.70;;;;;;;15.26;59.79;101322.44;5062671;28;20396;-24
2022/08/29 07:05:23;;;;;;;8.75;3.58;;;;;;;15.33;60.16;101317.88;5061093;28;20031;-24
2022/08/29 07:07:48;;;;;;;10.55;2.90;;;;;;;15.37;59.79;101324.88;5069955;28;20016;-24
2022/08/29 07:10:14;;;;;;;8.20;3.63;;;;;;;15.44;59.88;101323.00;5064141;28;20025;-24
2022/08/29 07:12:40;;;;;;;7.72;3.20;;;;;;;15.49;59.39;101318.47;5060690;28;20021;-24
2022/08/29 07:15:06;;;;;;;7.47;3.28;;;;;;;15.56;59.60;101325.41;5057376;28;20079;-24
2022/08/29 07:17:31;;;;;;;8.75;3.45;;;;;;;15.63;59.35;101320.84;5065045;28;20395;-24
2022/08/29 07:19:57;;;;;;;4.47;2.55;;;;;;;15.70;59.52;101322.47;5064046;28;20053;-24
2022/08/29 07:22:22;;;;;;;5.28;3.65;;;;;;;15.81;59.95;101321.38;5064999;28;20024;-24
2022/08/29 07:24:47;;;;;;;8.18;2.70;;;;;;;15.86;59.50;101324.81;5066873;28;20380;-25
2022/08/29 07:27:13;;;;;;;8.02;3.45;;;;;;;15.90;59.03;101327.38;5064980;28;20021;-24
2022/08/29 07:29:39;;;;;;;6.70;3.58;;;;;;;16.00;59.76;101322.78;5066514;28;20029;-24
2022/08/29 07:32:05;;;;;;;5.68;3.50;;;;;;;16.08;59.38;101329.72;5059102;28;20032;-24
2022/08/29 07:34:30;;;;;;;5.85;3.25;;;;;;;16.13;59.75;101333.16;5060867;28;20029;-24
2022/08/29 07:36:56;;;;;;;5.20;3.35;;;;;;;16.19;59.44;101330.38;5066156;28;20020;-24
2022/08/29 07:39:21;;;;;;;4.93;3.17;;;;;;;16.26;59.37;101331.09;5066320;28;20020;-24
2022/08/29 07:41:47;;;;;;;5.00;3.10;;;;;;;16.33;59.28;101330.06;5059862;28;20468;-24
2022/08/29 07:44:14;;;;;;;7.15;2.72;;;;;;;16.40;59.13;101336.97;5062179;28;20306;-24
2022/08/29 07:46:39;;;;;;;5.05;3.53;;;;;;;16.49;59.32;101330.56;5065163;28;20025;-24
2022/08/29 07:49:05;;;;;;;6.57;3.08;;;;;;;16.52;58.72;101326.97;5056687;28;20043;-24
2022/08/29 07:51:30;;;;;;;4.88;2.58;;;;;;;16.58;58.78;101324.16;5064144;28;20032;-24
2022/08/29 07:53:56;;;;;;;6.22;2.72;;;;;;;16.64;58.73;101312.50;5066933;28;20016;-24
2022/08/29 07:56:27;;;;;;;5.55;2.72;;;;;;;16.71;58.64;101324.75;5062210;28;20027;-24
2022/08/29 07:58:54;;;;;;;6.03;3.08;;;;;;;16.82;58.72;101323.59;5056347;28;20106;-24
2022/08/29 08:01:19;;;;;;;6.20;2.67;;;;;;;16.91;58.54;101323.38;5060704;28;20499;-24
2022/08/29 08:03:45;;;;;;;4.93;3.20;;;;;;;17.00;58.61;101327.56;5066369;28;20025;-24
2022/08/29 08:06:11;;;;;;;6.35;2.58;;;;;;;17.10;58.47;101322.94;5064250;28;20511;-24
2022/08/29 08:08:37;;;;;;;3.83;2.38;;;;;;;17.24;58.71;101323.41;5063277;28;20032;-24
2022/08/29 08:11:04;;;;;;;4.68;2.60;;;;;;;17.31;58.67;101319.66;5063645;28;20029;-24
2022/08/29 08:13:30;;;;;;;4.43;2.47;;;;;;;17.38;58.55;101320.41;5063608;28;20103;-24
2022/08/29 08:15:55;;;;;;;5.65;2.85;;;;;;;17.44;58.25;101314.03;5062207;28;20392;-24
2022/08/29 08:18:21;;;;;;;4.95;3.22;;;;;;;17.52;58.52;101328.00;5067351;28;20450;-24
2022/08/29 08:20:47;;;;;;;5.47;2.80;;;;;;;17.61;58.40;101318.00;5063671;28;20464;-24
2022/08/29 08:23:16;;;;;;;5.70;2.88;;;;;;;17.71;58.47;101327.50;5062464;28;20021;-24
2022/08/29 08:25:42;;;;;;;4.47;2.60;;;;;;;17.76;58.68;101336.22;5065735;28;20112;-24
2022/08/29 08:28:07;;;;;;;3.65;2.45;;;;;;;17.83;59.00;101340.47;5066173;28;20112;-25
2022/08/29 08:30:33;;;;;;;3.65;2.53;;;;;;;17.91;58.55;101340.22;5063726;28;20020;-24
2022/08/29 08:32:58;;;;;;;3.00;2.40;;;;;;;18.04;58.47;101340.75;5060588;28;20441;-25
2022/08/29 08:35:24;;;;;;;5.45;2.75;;;;;;;18.08;58.74;101337.06;5063368;28;20051;-25
2022/08/29 08:37:50;;;;;;;3.53;2.50;;;;;;;18.17;58.28;101330.59;5060871;28;20048;-24
2022/08/29 08:40:19;;;;;;;3.08;2.20;;;;;;;18.27;58.70;101336.53;5060248;28;20044;-25
2022/08/29 08:42:45;;;;;;;4.63;1.90;;;;;;;18.34;58.80;101343.44;5062185;28;20024;-24
2022/08/29 08:45:12;;;;;;;3.30;2.55;;;;;;;18.39;59.45;101340.63;5060762;28;20029;-24
2022/08/29 08:47:53;;;;;;;3.90;2.10;;;;;;;18.55;59.26;101330.34;5062656;28;20063;-24
2022/08/29 08:50:25;;;;;;;3.20;2.30;;;;;;;18.69;58.82;101337.91;5060860;28;20568;-24
2022/08/29 08:53:03;;;;;;;4.35;2.42;;;;;;;18.81;58.79;101330.41;5057863;28;20032;-24
2022/08/29 08:55:43;;;;;;;6.65;2.35;;;;;;;18.98;58.37;101330.69;5058988;28;20476;-25
2022/08/29 08:58:14;;;;;;;5.63;2.40;;;;;;;19.08;58.72;101327.75;5066565;28;20166;-25
2022/08/29 09:01:00;;;;;;;5.18;2.40;;;;;;;19.26;58.11;101331.56;5062443;28;20036;-25
2022/08/29 09:03:57;;;;;;;4.97;2.20;;;;;;;19.39;58.45;101325.78;5061499;28;20459;-25
2022/08/29 09:06:34;;;;;;;3.33;2.22;;;;;;;19.59;57.89;101319.72;5059958;28;20089;-25
2022/08/29 09:09:15;;;;;;;4.00;2.95;;;;;;;19.71;57.71;101319.25;5065066;28;20036;-25
2022/08/29 09:11:54;;;;;;;5.45;2.60;;;;;;;19.91;57.28;101322.13;5065030;28;20181;-25
2022/08/29 09:14:28;;;;;;;4.93;2.15;;;;;;;20.03;57.27;101320.78;5056748;28;20021;-24
2022/08/29 09:16:56;;;;;;;3.53;2.95;;;;;;;20.19;56.68;101305.00;5065357;28;20502;-24
2022/08/29 09:19:21;;;;;;;6.47;2.08;;;;;;;20.27;56.67;101310.06;5057611;28;20051;-24
2022/08/29 09:21:52;;;;;;;3.22;2.38;;;;;;;20.47;56.19;101311.94;5064771;28;20063;-25
2022/08/29 09:24:25;;;;;;;;;;;;;;;20.63;55.91;101305.00;5064833;28;20029;-24
2022/08/29 09:26:50;;;;;;;4.40;2.30;;;;;;;20.69;55.59;101316.41;5060492;28;19912;-24
2022/08/29 09:29:19;;;;;;;3.38;2.35;;;;;;;20.81;55.66;101313.19;5058027;28;20400;-24
2022/08/29 09:31:45;;;;;;;4.82;3.15;;;;;;;20.87;55.66;101312.06;5061360;28;20021;-24
2022/08/29 09:34:14;;;;;;;2.13;1.92;;;;;;;21.05;55.38;101325.66;5061803;28;20074;-24
2022/08/29 09:36:51;;;;;;;6.18;2.65;;;;;;;21.18;55.10;101312.59;5058723;28;20036;-25
2022/08/29 09:39:27;;;;;;;3.55;2.00;;;;;;;21.26;55.06;101310.44;5063885;28;20021;-24
2022/08/29 09:41:57;;;;;;;3.80;2.25;;;;;;;21.28;54.79;101313.94;5064658;28;20036;-24
2022/08/29 09:44:29;;;;;;;4.30;2.55;;;;;;;21.26;55.17;101319.38;5047834;28;20507;-24
2022/08/29 09:47:13;;;;;;;4.07;2.70;;;;;;;21.25;55.27;101322.13;5064223;28;20480;-24
2022/08/29 09:49:41;;;;;;;4.50;2.67;;;;;;;21.37;55.34;101318.88;5061483;28;20214;-25
2022/08/29 09:52:16;;;;;;;4.45;2.20;;;;;;;21.52;54.57;101324.50;5063350;28;20024;-24
2022/08/29 09:54:43;;;;;;;4.82;2.75;;;;;;;21.58;54.76;101323.34;5060967;28;20017;-24
2022/08/29 09:57:22;;;;;;;2.58;2.10;;;;;;;21.62;54.73;101323.16;5069049;28;20541;-24
2022/08/29 10:00:05;;;;;;;4.75;2.55;;;;;;;21.68;54.84;101316.63;5065117;28;20067;-24
2022/08/29 10:02:42;;;;;;;5.00;2.53;;;;;;;21.79;54.88;101316.16;5066390;28;20059;-24
2022/08/29 10:05:25;;;;;;;5.10;2.13;;;;;;;21.89;54.69;101312.13;5063607;28;20032;-24
2022/08/29 10:07:52;;;;;;;3.72;2.47;;;;;;;22.02;54.47;101311.53;5061860;28;20012;-24
2022/08/29 10:10:29;;;;;;;4.15;2.33;;;;;;;22.11;54.16;101316.44;5061441;28;20069;-24
2022/08/29 10:12:57;;;;;;;5.63;2.47;;;;;;;22.23;54.41;101316.81;5068074;28;20021;-24
2022/08/29 10:15:26;;;;;;;8.10;2.22;;;;;;;22.41;53.88;101317.75;5063185;28;20052;-24
2022/08/29 10:21:18;;;;;;;4.10;2.42;;;;;;;22.74;53.08;101297.34;5067664;28;20097;-24
2022/08/29 10:23:55;;;;;;;4.15;2.25;;;;;;;22.74;52.78;101302.72;5035605;28;20044;-24
2022/08/29 10:26:35;;;;;;;3.78;2.55;;;;;;;22.75;52.82;101307.16;5057764;28;20362;-24
2022/08/29 10:29:04;;;;;;;;;;;;;;;22.79;53.02;101297.97;5059223;28;20427;-24
2022/08/29 10:31:36;;;;;;;3.22;2.45;;;;;;;22.86;52.71;101296.72;5060697;28;19995;-25
2022/08/29 10:34:37;;;;;;;5.13;2.25;;;;;;;22.95;52.36;101300.75;5064121;28;20070;-24
2022/08/29 10:37:15;;;;;;;4.00;2.30;;;;;;;22.97;52.52;101300.69;5065252;28;20024;-24
2022/08/29 10:40:05;;;;;;;3.13;2.33;;;;;;;23.03;52.95;101306.59;5065902;28;20367;-24
2022/08/29 10:42:32;;;;;;;3.90;2.63;;;;;;;23.07;52.83;101304.63;5062268;28;20024;-23
2022/08/29 10:45:08;;;;;;;3.25;1.83;;;;;;;23.17;52.56;101296.91;5061046;28;20108;-24
2022/08/29 10:47:45;;;;;;;3.90;2.45;;;;;;;23.23;52.47;101309.19;5061353;28;20039;-25
2022/08/29 10:50:35;;;;;;;3.95;2.25;;;;;;;23.25;52.49;101304.59;5061105;28;20199;-24
2022/08/29 10:53:16;;;;;;;5.57;2.80;;;;;;;23.32;52.54;101309.59;5062674;28;20021;-24
2022/08/29 10:55:57;;;;;;;4.38;2.42;;;;;;;23.37;52.09;101298.59;5069985;28;20025;-24
2022/08/29 10:58:38;;;;;;;4.90;2.40;;;;;;;23.44;52.10;101296.47;5058544;28;20040;-24
2022/08/29 11:01:20;;;;;;;4.03;2.50;;;;;;;23.50;51.69;101289.88;5062973;28;20103;-24
2022/08/29 11:04:01;;;;;;;5.55;2.40;;;;;;;23.71;51.63;101293.22;5061166;28;20062;-24
2022/08/29 11:06:39;;;;;;;3.63;2.40;;;;;;;23.83;51.77;101297.03;5064447;28;20048;-24
2022/08/29 11:09:28;;;;;;;2.88;2.60;;;;;;;23.90;51.45;101298.44;5062549;28;20400;-24
2022/08/29 11:12:11;;;;;;;4.30;2.72;;;;;;;23.98;51.12;101286.38;5058676;28;20092;-24
2022/08/29 11:14:51;;;;;;;4.43;2.70;;;;;;;24.03;51.08;101282.47;5059255;28;20031;-24
2022/08/29 11:17:17;;;;;;;5.83;2.40;;;;;;;24.06;50.70;101297.56;5062148;28;20043;-24
2022/08/29 11:19:49;;;;;;;3.75;2.13;;;;;;;24.07;50.55;101285.84;5063057;28;20024;-24
2022/08/29 11:22:41;;;;;;;2.70;2.47;;;;;;;24.09;50.64;101287.50;5064591;28;20044;-24
2022/08/29 11:25:13;;;;;;;4.32;2.70;;;;;;;24.15;50.46;101280.94;5028855;28;20032;-24
2022/08/29 11:28:03;;;;;;;5.93;2.40;;;;;;;24.27;50.21;101276.66;5064718;28;20024;-24
2022/08/29 11:30:55;;;;;;;3.63;2.35;;;;;;;24.38;49.53;101276.03;5062582;28;20016;-24
2022/08/29 11:33:49;;;;;;;3.92;2.25;;;;;;;24.55;49.52;101279.56;5060245;28;20396;-24
2022/08/29 11:36:17;;;;;;;4.30;2.40;;;;;;;24.62;49.16;101278.25;5062964;28;20044;-24
2022/08/29 11:38:54;;;;;;;3.70;2.17;;;;;;;24.67;49.39;101276.13;5060719;28;20036;-24
2022/08/29 11:41:25;;;;;;;3.95;2.63;;;;;;;24.73;49.65;101280.28;5064652;28;20019;-24
2022/08/29 11:43:54;;;;;;;5.95;2.38;;;;;;;24.79;49.95;101285.34;5060524;28;20385;-24